createdAt,value
2018-03-25T00:00:50.864Z,32.70
2018-03-25T00:01:51.048Z,33.40
2018-03-25T00:02:51.196Z,35.00
2018-03-25T00:03:51.381Z,33.50
2018-03-25T00:04:51.573Z,33.80
2018-03-25T00:05:51.815Z,34.20
2018-03-25T00:06:51.961Z,35.80
2018-03-25T00:07:52.164Z,33.40
2018-03-25T00:08:52.194Z,37.00
2018-03-25T00:09:52.567Z,32.80
2018-03-25T00:10:52.690Z,31.90
2018-03-25T00:11:52.963Z,34.20
2018-03-25T00:12:53.153Z,34.30
2018-03-25T00:13:53.329Z,33.50
2018-03-25T00:14:53.499Z,32.40
2018-03-25T00:15:53.424Z,34.30
2018-03-25T00:16:53.761Z,35.60
2018-03-25T00:17:53.875Z,36.40
2018-03-25T00:18:53.934Z,32.70
2018-03-25T00:19:54.247Z,33.20
2018-03-25T00:20:54.071Z,31.70
2018-03-25T00:21:54.271Z,36.70
2018-03-25T00:22:54.646Z,32.10
2018-03-25T00:23:55.315Z,33.50
2018-03-25T00:24:55.054Z,32.20
2018-03-25T00:25:55.145Z,31.50
2018-03-25T00:26:55.322Z,33.60
2018-03-25T00:27:55.542Z,32.40
2018-03-25T00:28:55.554Z,34.20
2018-03-25T00:29:55.674Z,31.70
2018-03-25T00:30:55.805Z,32.50
2018-03-25T00:31:56.099Z,30.50
2018-03-25T00:32:56.154Z,33.00
2018-03-25T00:33:56.229Z,30.80
2018-03-25T00:34:56.419Z,32.90
2018-03-25T00:35:56.533Z,33.00
2018-03-25T00:36:56.847Z,32.60
2018-03-25T00:37:56.925Z,32.70
2018-03-25T00:38:57.042Z,32.00
2018-03-25T00:39:57.419Z,31.30
2018-03-25T00:40:57.407Z,28.20
2018-03-25T00:41:57.570Z,30.80
2018-03-25T00:42:57.895Z,31.00
2018-03-25T00:43:58.979Z,35.50
2018-03-25T00:44:58.300Z,35.30
2018-03-25T00:45:58.411Z,34.80
2018-03-25T00:46:59.829Z,38.10
2018-03-25T00:47:59.405Z,35.40
2018-03-25T00:48:58.737Z,36.60
2018-03-25T00:49:58.846Z,34.80
2018-03-25T00:50:59.054Z,36.30
2018-03-25T00:51:59.245Z,34.00
2018-03-25T00:52:59.377Z,37.60
2018-03-25T00:53:59.552Z,39.50
2018-03-25T00:55:00.626Z,41.30
2018-03-25T00:56:00.106Z,37.70
2018-03-25T00:57:00.035Z,41.00
2018-03-25T00:58:00.187Z,34.90
2018-03-25T00:59:00.468Z,35.70
2018-03-25T01:00:00.671Z,34.40
2018-03-25T01:01:00.583Z,39.50
2018-03-25T01:02:00.746Z,41.40
2018-03-25T01:03:00.910Z,39.20
2018-03-25T01:04:01.059Z,39.90
2018-03-25T01:05:01.218Z,38.10
2018-03-25T01:06:01.446Z,38.40
2018-03-25T01:07:01.486Z,37.80
2018-03-25T01:08:01.838Z,35.90
2018-03-25T01:09:01.834Z,37.20
2018-03-25T01:10:02.018Z,38.80
2018-03-25T01:11:02.277Z,35.90
2018-03-25T01:12:02.767Z,43.10
2018-03-25T01:13:02.673Z,43.90
2018-03-25T01:14:02.607Z,41.30
2018-03-25T01:15:03.201Z,36.90
2018-03-25T01:16:03.008Z,35.30
2018-03-25T01:17:03.135Z,36.90
2018-03-25T01:18:03.509Z,38.30
2018-03-25T01:19:03.546Z,39.90
2018-03-25T01:20:03.642Z,39.00
2018-03-25T01:21:03.836Z,39.50
2018-03-25T01:22:03.977Z,39.10
2018-03-25T01:23:04.152Z,37.90
2018-03-25T01:24:04.700Z,39.80
2018-03-25T01:25:04.758Z,39.40
2018-03-25T01:26:04.799Z,37.90
2018-03-25T01:27:04.896Z,37.10
2018-03-25T01:28:05.074Z,41.30
2018-03-25T01:29:06.240Z,40.90
2018-03-25T01:30:05.719Z,42.50
2018-03-25T01:31:05.423Z,44.20
2018-03-25T01:32:05.564Z,41.70
2018-03-25T01:33:05.715Z,40.50
2018-03-25T01:34:05.866Z,37.40
2018-03-25T01:35:06.265Z,36.80
2018-03-25T01:36:06.295Z,37.80
2018-03-25T01:37:06.377Z,39.80
2018-03-25T01:38:06.663Z,40.00
2018-03-25T01:39:06.684Z,39.20
2018-03-25T01:40:06.848Z,40.60
2018-03-25T01:41:07.010Z,39.30
2018-03-25T01:42:07.153Z,40.90
2018-03-25T01:43:07.316Z,42.40
2018-03-25T01:44:07.711Z,40.70
2018-03-25T01:45:07.619Z,39.90
2018-03-25T01:46:07.758Z,44.30
2018-03-25T01:47:07.961Z,41.80
2018-03-25T01:48:08.367Z,42.80
2018-03-25T01:49:08.297Z,42.20
2018-03-25T01:50:08.367Z,40.70
2018-03-25T01:51:08.525Z,45.30
2018-03-25T01:52:08.643Z,43.80
2018-03-25T01:53:09.973Z,46.10
2018-03-25T01:54:08.985Z,45.10
2018-03-25T01:55:09.142Z,41.30
2018-03-25T01:56:09.300Z,42.00
2018-03-25T01:57:09.534Z,41.70
2018-03-25T01:58:09.610Z,45.40
2018-03-25T01:59:09.861Z,42.00
2018-03-25T02:00:09.987Z,41.80
2018-03-25T02:01:10.098Z,45.50
2018-03-25T02:02:10.246Z,43.20
2018-03-25T02:03:10.466Z,46.70
2018-03-25T02:04:10.608Z,43.70
2018-03-25T02:05:10.776Z,43.10
2018-03-25T02:06:10.957Z,42.30
2018-03-25T02:07:11.054Z,45.80
2018-03-25T02:08:11.287Z,46.00
2018-03-25T02:09:11.521Z,47.20
2018-03-25T02:10:11.740Z,46.50
2018-03-25T02:11:11.717Z,47.30
2018-03-25T02:12:11.941Z,46.50
2018-03-25T02:13:12.054Z,44.80
2018-03-25T02:14:12.213Z,41.20
2018-03-25T02:15:12.484Z,48.00
2018-03-25T02:16:12.597Z,42.00
2018-03-25T02:17:12.727Z,43.80
2018-03-25T02:18:12.866Z,43.60
2018-03-25T02:19:13.088Z,50.70
2018-03-25T02:20:13.331Z,47.40
2018-03-25T02:21:13.576Z,45.30
2018-03-25T02:22:13.584Z,45.70
2018-03-25T02:23:13.945Z,43.80
2018-03-25T02:24:14.026Z,44.20
2018-03-25T02:25:14.118Z,45.30
2018-03-25T02:26:14.273Z,44.80
2018-03-25T02:27:14.562Z,42.90
2018-03-25T02:28:14.702Z,43.90
2018-03-25T02:29:14.688Z,45.90
2018-03-25T02:30:14.923Z,45.70
2018-03-25T02:31:15.293Z,44.90
2018-03-25T02:32:15.417Z,46.70
2018-03-25T02:33:15.657Z,49.40
2018-03-25T02:34:15.673Z,46.70
2018-03-25T02:35:15.936Z,50.10
2018-03-25T02:36:15.918Z,45.10
2018-03-25T02:37:16.285Z,50.10
2018-03-25T02:38:16.305Z,46.40
2018-03-25T02:39:16.446Z,46.60
2018-03-25T02:40:16.605Z,46.10
2018-03-25T02:41:16.858Z,45.60
2018-03-25T02:42:16.860Z,45.60
2018-03-25T02:43:16.903Z,44.20
2018-03-25T02:44:17.057Z,46.50
2018-03-25T02:45:17.405Z,45.10
2018-03-25T02:46:17.377Z,45.90
2018-03-25T02:47:17.704Z,47.70
2018-03-25T02:48:17.689Z,46.60
2018-03-25T02:49:17.878Z,44.30
2018-03-25T02:50:18.052Z,44.80
2018-03-25T02:51:18.346Z,46.50
2018-03-25T02:52:18.332Z,46.80
2018-03-25T02:53:18.727Z,45.80
2018-03-25T02:54:18.753Z,48.50
2018-03-25T02:55:18.791Z,46.50
2018-03-25T02:56:19.220Z,47.20
2018-03-25T02:57:19.140Z,46.70
2018-03-25T02:58:19.430Z,48.90
2018-03-25T02:59:19.633Z,54.60
2018-03-25T03:00:19.746Z,47.70
2018-03-25T03:01:19.926Z,46.60
2018-03-25T03:02:19.926Z,48.70
2018-03-25T03:03:20.151Z,49.10
2018-03-25T03:04:21.280Z,51.00
2018-03-25T03:05:20.682Z,51.10
2018-03-25T03:06:20.657Z,48.90
2018-03-25T03:07:20.876Z,46.80
2018-03-25T03:08:20.983Z,46.80
2018-03-25T03:09:21.136Z,48.40
2018-03-25T03:10:21.299Z,49.20
2018-03-25T03:11:21.563Z,47.20
2018-03-25T03:12:21.791Z,45.50
2018-03-25T03:13:22.037Z,47.40
2018-03-25T03:14:21.963Z,50.50
2018-03-25T03:15:22.076Z,49.10
2018-03-25T03:16:22.452Z,48.80
2018-03-25T03:17:22.427Z,45.10
2018-03-25T03:18:22.582Z,51.30
2018-03-25T03:19:22.753Z,46.90
2018-03-25T03:20:22.910Z,49.30
2018-03-25T03:21:23.050Z,50.10
2018-03-25T03:22:23.230Z,45.30
2018-03-25T03:23:23.574Z,47.40
2018-03-25T03:24:23.635Z,49.50
2018-03-25T03:25:23.847Z,45.20
2018-03-25T03:26:24.188Z,44.50
2018-03-25T03:27:24.207Z,47.00
2018-03-25T03:28:24.382Z,46.20
2018-03-25T03:29:24.568Z,44.20
2018-03-25T03:30:24.746Z,46.00
2018-03-25T03:31:24.949Z,47.00
2018-03-25T03:32:25.040Z,48.30
2018-03-25T03:33:25.280Z,44.90
2018-03-25T03:34:25.578Z,46.30
2018-03-25T03:35:25.561Z,47.10
2018-03-25T03:36:25.813Z,51.00
2018-03-25T03:37:25.868Z,51.10
2018-03-25T03:38:26.283Z,45.70
2018-03-25T03:39:26.496Z,47.90
2018-03-25T03:40:26.552Z,47.80
2018-03-25T03:41:26.725Z,45.80
2018-03-25T03:42:26.861Z,47.00
2018-03-25T03:43:26.865Z,48.70
2018-03-25T03:44:27.182Z,46.10
2018-03-25T03:45:27.450Z,45.50
2018-03-25T03:46:28.153Z,49.30
2018-03-25T03:47:27.613Z,46.90
2018-03-25T03:48:27.802Z,47.80
2018-03-25T03:49:28.040Z,51.80
2018-03-25T03:50:28.324Z,49.20
2018-03-25T03:51:28.288Z,48.60
2018-03-25T03:52:28.636Z,46.90
2018-03-25T03:53:28.662Z,46.30
2018-03-25T03:54:28.991Z,49.10
2018-03-25T03:55:30.017Z,49.00
2018-03-25T03:56:30.343Z,50.30
2018-03-25T03:57:29.718Z,46.30
2018-03-25T03:58:30.382Z,48.80
2018-03-25T03:59:30.512Z,46.30
2018-03-25T04:00:31.306Z,49.60
2018-03-25T04:01:30.845Z,53.80
2018-03-25T04:02:30.956Z,47.70
2018-03-25T04:03:31.503Z,44.40
2018-03-25T04:04:31.257Z,45.60
2018-03-25T04:05:31.468Z,44.90
2018-03-25T04:06:31.960Z,51.50
2018-03-25T04:07:31.580Z,52.20
2018-03-25T04:08:32.179Z,50.50
2018-03-25T04:09:31.934Z,50.40
2018-03-25T04:10:32.516Z,48.50
2018-03-25T04:11:32.214Z,48.00
2018-03-25T04:12:31.677Z,46.30
2018-03-25T04:13:31.849Z,48.40
2018-03-25T04:14:31.981Z,49.80
2018-03-25T04:15:32.256Z,47.50
2018-03-25T04:16:32.258Z,47.60
2018-03-25T04:17:32.390Z,48.00
2018-03-25T04:18:32.590Z,49.90
2018-03-25T04:19:32.829Z,46.70
2018-03-25T04:20:33.036Z,47.40
2018-03-25T04:21:33.082Z,48.90
2018-03-25T04:22:33.231Z,48.40
2018-03-25T04:23:33.399Z,44.20
2018-03-25T04:24:33.563Z,47.40
2018-03-25T04:25:33.755Z,48.80
2018-03-25T04:26:33.982Z,53.90
2018-03-25T04:27:34.116Z,48.90
2018-03-25T04:28:34.428Z,52.10
2018-03-25T04:29:35.329Z,48.00
2018-03-25T04:30:34.560Z,48.20
2018-03-25T04:31:34.771Z,48.30
2018-03-25T04:32:34.903Z,47.40
2018-03-25T04:33:35.055Z,48.50
2018-03-25T04:34:35.415Z,49.40
2018-03-25T04:35:35.467Z,47.70
2018-03-25T04:36:35.712Z,51.30
2018-03-25T04:37:35.757Z,51.90
2018-03-25T04:38:35.948Z,52.00
2018-03-25T04:39:36.057Z,52.00
2018-03-25T04:40:36.368Z,48.70
2018-03-25T04:41:36.442Z,51.90
2018-03-25T04:42:36.666Z,48.60
2018-03-25T04:43:36.820Z,45.80
2018-03-25T04:44:36.957Z,48.80
2018-03-25T04:45:37.119Z,46.30
2018-03-25T04:46:37.242Z,47.10
2018-03-25T04:47:37.419Z,47.40
2018-03-25T04:48:37.558Z,45.80
2018-03-25T04:49:37.824Z,47.20
2018-03-25T04:50:37.959Z,49.00
2018-03-25T04:51:38.295Z,49.90
2018-03-25T04:52:38.186Z,47.80
2018-03-25T04:53:38.500Z,47.70
2018-03-25T04:54:38.536Z,48.30
2018-03-25T04:55:38.711Z,49.00
2018-03-25T04:56:38.896Z,46.90
2018-03-25T04:57:39.037Z,48.10
2018-03-25T04:58:39.184Z,48.70
2018-03-25T04:59:39.321Z,49.60
2018-03-25T05:00:39.612Z,48.00
2018-03-25T05:01:39.642Z,50.00
2018-03-25T05:02:39.816Z,49.20
2018-03-25T05:03:40.155Z,51.90
2018-03-25T05:04:40.167Z,51.20
2018-03-25T05:05:40.284Z,50.10
2018-03-25T05:06:40.634Z,51.50
2018-03-25T05:07:40.681Z,47.20
2018-03-25T05:08:40.810Z,50.20
2018-03-25T05:09:40.802Z,46.00
2018-03-25T05:10:40.961Z,46.50
2018-03-25T05:11:41.110Z,54.00
2018-03-25T05:12:41.277Z,47.00
2018-03-25T05:13:41.441Z,52.00
2018-03-25T05:14:41.583Z,50.30
2018-03-25T05:15:41.756Z,47.40
2018-03-25T05:16:41.917Z,51.70
2018-03-25T05:17:42.068Z,51.50
2018-03-25T05:18:42.229Z,50.40
2018-03-25T05:23:22.859Z,50.30
2018-03-25T05:26:03.108Z,47.70
2018-03-25T05:27:03.258Z,52.30
2018-03-25T05:28:03.433Z,52.70
2018-03-25T05:29:03.582Z,48.20
2018-03-25T05:30:03.747Z,49.10
2018-03-25T05:31:03.909Z,47.60
2018-03-25T05:32:04.069Z,49.90
2018-03-25T05:33:04.441Z,45.40
2018-03-25T05:34:04.392Z,51.70
2018-03-25T05:35:04.497Z,47.50
2018-03-25T05:36:04.656Z,50.20
2018-03-25T05:37:04.814Z,50.90
2018-03-25T05:38:04.973Z,52.30
2018-03-25T05:39:05.132Z,53.10
2018-03-25T05:40:05.309Z,46.10
2018-03-25T05:41:05.468Z,45.30
2018-03-25T05:42:05.625Z,47.00
2018-03-25T05:43:05.788Z,52.40
2018-03-25T05:44:05.944Z,55.70
2018-03-25T05:45:06.119Z,53.40
2018-03-25T05:46:06.278Z,51.20
2018-03-25T05:47:06.437Z,51.90
2018-03-25T05:48:06.593Z,47.50
2018-03-25T05:49:06.753Z,49.80
2018-03-25T05:50:06.917Z,47.70
2018-03-25T05:51:07.085Z,48.10
2018-03-25T05:52:07.254Z,45.20
2018-03-25T05:53:07.414Z,47.10
2018-03-25T05:54:07.578Z,46.70
2018-03-25T05:55:07.801Z,46.60
2018-03-25T05:56:07.892Z,45.50
2018-03-25T05:57:08.050Z,41.00
2018-03-25T05:58:08.209Z,50.00
2018-03-25T05:59:08.368Z,43.90
2018-03-25T06:00:08.536Z,43.40
2018-03-25T06:01:08.710Z,45.90
2018-03-25T06:02:08.871Z,41.80
2018-03-25T06:03:09.033Z,45.80
2018-03-25T06:04:09.200Z,47.00
2018-03-25T06:05:09.360Z,49.60
2018-03-25T06:06:09.533Z,44.70
2018-03-25T06:07:09.710Z,45.80
2018-03-25T06:08:09.843Z,48.80
2018-03-25T06:09:10.002Z,46.70
2018-03-25T06:10:10.163Z,46.50
2018-03-25T06:11:10.328Z,42.30
2018-03-25T06:12:10.481Z,42.30
2018-03-25T06:13:10.637Z,44.60
2018-03-25T06:14:10.795Z,45.10
2018-03-25T06:15:10.957Z,41.90
2018-03-25T06:16:11.126Z,40.90
2018-03-25T06:17:11.301Z,43.10
2018-03-25T06:18:11.455Z,45.80
2018-03-25T06:19:11.624Z,44.80
2018-03-25T06:20:11.790Z,44.80
2018-03-25T06:21:11.955Z,44.60
2018-03-25T06:22:12.113Z,44.20
2018-03-25T06:23:12.266Z,43.30
2018-03-25T06:24:12.431Z,43.10
2018-03-25T06:25:12.600Z,42.60
2018-03-25T06:26:12.757Z,40.80
2018-03-25T06:27:12.920Z,42.60
2018-03-25T06:28:13.084Z,41.90
2018-03-25T06:29:13.253Z,45.80
2018-03-25T06:30:13.403Z,41.40
2018-03-25T06:31:13.571Z,43.40
2018-03-25T06:32:13.727Z,37.20
2018-03-25T06:33:13.888Z,43.30
2018-03-25T06:34:14.056Z,40.10
2018-03-25T06:35:14.219Z,40.70
2018-03-25T06:36:14.378Z,40.70
2018-03-25T06:37:14.532Z,38.80
2018-03-25T06:38:14.696Z,40.00
2018-03-25T06:39:14.859Z,41.30
2018-03-25T06:40:15.021Z,38.40
2018-03-25T06:41:15.189Z,38.10
2018-03-25T06:42:15.356Z,39.40
2018-03-25T06:43:15.516Z,37.70
2018-03-25T06:44:15.680Z,37.30
2018-03-25T06:45:15.833Z,35.60
2018-03-25T06:46:15.997Z,35.90
2018-03-25T06:47:16.156Z,37.40
2018-03-25T06:48:16.329Z,35.90
2018-03-25T06:49:16.497Z,35.20
2018-03-25T06:50:16.658Z,37.50
2018-03-25T06:51:16.821Z,33.80
2018-03-25T06:52:16.981Z,34.40
2018-03-25T06:53:17.176Z,35.60
2018-03-25T06:54:17.335Z,33.10
2018-03-25T06:55:52.312Z,34.80
2018-03-25T06:56:17.739Z,32.40
2018-03-25T06:57:17.903Z,33.30
2018-03-25T06:58:18.072Z,33.40
2018-03-25T06:59:18.239Z,33.30
2018-03-25T07:00:18.401Z,33.10
2018-03-25T07:01:18.566Z,33.80
2018-03-25T07:02:18.717Z,34.00
2018-03-25T07:03:18.879Z,30.30
2018-03-25T07:04:19.058Z,30.70
2018-03-25T07:05:47.211Z,30.40
2018-03-25T07:06:19.343Z,26.70
2018-03-25T07:07:19.506Z,29.80
2018-03-25T07:08:19.673Z,24.60
2018-03-25T07:09:19.831Z,28.40
2018-03-25T07:10:19.995Z,29.70
2018-03-25T07:11:20.151Z,27.60
2018-03-25T07:12:20.321Z,29.80
2018-03-25T07:13:20.484Z,30.10
2018-03-25T07:14:20.644Z,28.70
2018-03-25T07:15:20.816Z,28.30
2018-03-25T07:16:20.981Z,29.90
2018-03-25T07:17:21.146Z,28.90
2018-03-25T07:18:21.300Z,28.70
2018-03-25T07:19:21.458Z,32.20
2018-03-25T07:20:21.615Z,31.10
2018-03-25T07:21:21.773Z,30.50
2018-03-25T07:22:21.933Z,31.20
2018-03-25T07:23:22.107Z,27.30
2018-03-25T07:24:22.267Z,29.00
2018-03-25T07:25:22.430Z,28.10
2018-03-25T07:26:22.596Z,30.40
2018-03-25T07:27:22.767Z,30.10
2018-03-25T07:28:22.935Z,30.80
2018-03-25T07:29:23.097Z,32.10
2018-03-25T07:30:23.264Z,31.60
2018-03-25T07:31:23.430Z,29.70
2018-03-25T07:32:23.594Z,31.90
2018-03-25T07:33:23.755Z,28.00
2018-03-25T07:34:23.916Z,29.40
2018-03-25T07:35:24.083Z,31.10
2018-03-25T07:36:24.254Z,30.00
2018-03-25T07:37:24.418Z,28.60
2018-03-25T07:38:24.575Z,28.90
2018-03-25T07:39:24.736Z,29.70
2018-03-25T07:40:24.903Z,28.40
2018-03-25T07:41:25.069Z,30.00
2018-03-25T07:42:25.239Z,28.90
2018-03-25T07:43:25.400Z,31.20
2018-03-25T07:44:25.576Z,29.70
2018-03-25T07:45:25.743Z,28.50
2018-03-25T07:46:25.935Z,31.00
2018-03-25T07:47:26.089Z,31.00
2018-03-25T07:48:26.257Z,29.70
2018-03-25T07:49:26.418Z,29.50
2018-03-25T07:50:26.595Z,30.30
2018-03-25T07:51:26.731Z,32.10
2018-03-25T07:52:26.934Z,29.00
2018-03-25T07:55:00.709Z,29.50
2018-03-25T07:56:00.251Z,26.80
2018-03-25T07:57:00.419Z,30.00
2018-03-25T07:58:00.583Z,30.90
2018-03-25T07:59:00.753Z,31.20
2018-03-25T08:00:00.906Z,32.60
2018-03-25T08:01:01.087Z,34.30
2018-03-25T08:02:01.229Z,31.50
2018-03-25T08:03:01.396Z,32.60
2018-03-25T08:04:01.559Z,32.40
2018-03-25T08:05:01.725Z,32.20
2018-03-25T08:06:01.932Z,32.50
2018-03-25T08:07:02.046Z,30.70
2018-03-25T08:08:02.207Z,33.00
2018-03-25T08:09:02.370Z,31.00
2018-03-25T08:10:02.528Z,31.10
2018-03-25T08:11:02.691Z,32.90
2018-03-25T08:12:02.859Z,32.30
2018-03-25T08:13:03.040Z,31.90
2018-03-25T08:14:03.199Z,29.30
2018-03-25T08:15:03.359Z,30.30
2018-03-25T08:16:03.520Z,30.40
2018-03-25T08:17:03.721Z,30.10
2018-03-25T08:18:03.849Z,32.80
2018-03-25T08:19:04.010Z,28.90
2018-03-25T08:20:04.182Z,32.20
2018-03-25T08:21:04.341Z,31.80
2018-03-25T08:22:04.505Z,31.90
2018-03-25T08:23:04.674Z,30.90
2018-03-25T08:24:04.844Z,32.90
2018-03-25T08:25:05.003Z,33.80
2018-03-25T08:26:05.167Z,30.70
2018-03-25T08:27:05.341Z,32.20
2018-03-25T08:28:05.502Z,31.40
2018-03-25T08:29:06.220Z,28.90
2018-03-25T08:30:05.885Z,29.20
2018-03-25T08:31:06.730Z,30.30
2018-03-25T08:32:06.468Z,30.10
2018-03-25T08:33:07.144Z,29.20
2018-03-25T08:34:06.662Z,29.50
2018-03-25T08:35:06.823Z,28.40
2018-03-25T08:36:06.997Z,29.80
2018-03-25T08:37:07.168Z,29.90
2018-03-25T08:38:07.376Z,29.30
2018-03-25T08:39:07.569Z,28.20
2018-03-25T08:40:07.747Z,30.00
2018-03-25T08:41:07.923Z,28.20
2018-03-25T08:42:08.109Z,29.60
2018-03-25T08:43:08.282Z,29.00
2018-03-25T08:44:08.451Z,29.00
2018-03-25T08:45:08.635Z,29.00
2018-03-25T08:46:08.814Z,29.00
2018-03-25T08:47:08.998Z,27.60
2018-03-25T08:48:09.172Z,28.40
2018-03-25T08:49:09.344Z,28.60
2018-03-25T08:50:09.512Z,28.60
2018-03-25T08:51:09.692Z,28.20
2018-03-25T08:52:09.865Z,28.60
2018-03-25T08:53:10.040Z,28.00
2018-03-25T08:54:10.218Z,29.70
2018-03-25T08:55:10.387Z,28.20
2018-03-25T08:56:10.555Z,29.00
2018-03-25T08:57:10.800Z,30.40
2018-03-25T08:58:12.729Z,28.80
2018-03-25T08:59:11.148Z,30.60
2018-03-25T09:00:11.325Z,29.80
2018-03-25T09:01:12.241Z,30.20
2018-03-25T09:02:12.226Z,30.40
2018-03-25T09:03:11.831Z,30.00
2018-03-25T09:04:11.965Z,29.90
2018-03-25T09:05:13.734Z,29.40
2018-03-25T09:06:12.280Z,28.70
2018-03-25T09:07:17.226Z,29.50
2018-03-25T09:08:12.648Z,30.80
2018-03-25T09:09:12.966Z,29.00
2018-03-25T09:10:13.730Z,29.90
2018-03-25T09:11:13.164Z,28.30
2018-03-25T09:12:13.329Z,30.70
2018-03-25T09:13:13.509Z,28.90
2018-03-25T09:14:13.799Z,29.50
2018-03-25T09:15:13.861Z,29.30
2018-03-25T09:16:14.732Z,29.80
2018-03-25T09:17:15.748Z,29.30
2018-03-25T09:18:14.308Z,28.30
2018-03-25T09:19:14.481Z,29.70
2018-03-25T09:20:14.659Z,29.80
2018-03-25T09:21:14.831Z,27.70
2018-03-25T09:22:16.049Z,29.20
2018-03-25T09:23:15.761Z,29.20
2018-03-25T09:24:16.254Z,29.50
2018-03-25T09:25:15.671Z,29.40
2018-03-25T09:26:15.840Z,28.80
2018-03-25T09:27:16.014Z,29.00
2018-03-25T09:28:16.195Z,28.80
2018-03-25T09:29:16.376Z,29.60
2018-03-25T09:30:18.302Z,28.10
2018-03-25T09:31:16.792Z,28.80
2018-03-25T09:32:16.965Z,29.00
2018-03-25T09:33:17.739Z,29.80
2018-03-25T09:34:18.350Z,29.60
2018-03-25T09:35:17.981Z,29.10
2018-03-25T09:36:17.878Z,28.70
2018-03-25T09:37:17.942Z,28.30
2018-03-25T09:38:18.099Z,28.40
2018-03-25T09:39:18.284Z,29.40
2018-03-25T09:40:18.463Z,28.40
2018-03-25T09:41:18.638Z,28.80
2018-03-25T09:42:18.823Z,28.40
2018-03-25T09:43:19.005Z,27.40
2018-03-25T09:44:19.740Z,28.10
2018-03-25T09:45:19.420Z,27.60
2018-03-25T09:46:19.606Z,26.40
2018-03-25T09:47:20.740Z,27.30
2018-03-25T09:48:19.929Z,27.50
2018-03-25T09:49:20.112Z,29.10
2018-03-25T09:50:20.301Z,28.50
2018-03-25T09:51:20.486Z,28.10
2018-03-25T09:52:20.660Z,27.30
2018-03-25T09:53:23.735Z,27.80
2018-03-25T09:54:22.761Z,27.70
2018-03-25T09:55:21.731Z,27.00
2018-03-25T09:56:21.419Z,26.80
2018-03-25T09:57:21.623Z,26.40
2018-03-25T09:58:21.762Z,27.00
2018-03-25T09:59:21.985Z,26.40
2018-03-25T10:02:03.745Z,26.70
2018-03-25T10:03:04.010Z,26.00
2018-03-25T10:04:04.060Z,26.50
2018-03-25T10:05:04.330Z,24.20
2018-03-25T10:06:04.394Z,24.90
2018-03-25T10:07:04.655Z,25.50
2018-03-25T10:08:04.727Z,25.50
2018-03-25T10:09:04.931Z,24.20
2018-03-25T10:10:05.117Z,25.70
2018-03-25T10:11:06.013Z,26.70
2018-03-25T10:12:05.532Z,26.00
2018-03-25T10:13:05.749Z,24.00
2018-03-25T10:14:05.917Z,24.60
2018-03-25T10:15:06.121Z,24.10
2018-03-25T10:16:06.313Z,24.50
2018-03-25T10:17:06.518Z,24.30
2018-03-25T10:18:06.678Z,25.00
2018-03-25T10:19:06.953Z,25.00
2018-03-25T10:20:07.126Z,24.90
2018-03-25T10:21:07.308Z,23.70
2018-03-25T10:22:07.501Z,24.50
2018-03-25T10:23:08.731Z,23.30
2018-03-25T10:24:08.578Z,22.60
2018-03-25T10:25:08.159Z,22.30
2018-03-25T10:26:08.333Z,23.70
2018-03-25T10:27:08.600Z,23.00
2018-03-25T10:28:08.747Z,23.80
2018-03-25T10:29:11.115Z,22.30
2018-03-25T10:30:09.182Z,21.60
2018-03-25T10:31:10.008Z,21.80
2018-03-25T10:32:09.621Z,22.90
2018-03-25T10:33:10.016Z,21.70
2018-03-25T10:34:09.951Z,21.00
2018-03-25T10:35:10.179Z,20.90
2018-03-25T10:36:10.292Z,22.20
2018-03-25T10:37:10.508Z,20.10
2018-03-25T10:38:10.705Z,18.80
2018-03-25T10:39:11.480Z,18.90
2018-03-25T10:40:11.048Z,20.00
2018-03-25T10:41:11.414Z,20.60
2018-03-25T10:42:11.473Z,20.30
2018-03-25T10:43:11.683Z,19.60
2018-03-25T10:44:11.926Z,19.50
2018-03-25T10:45:12.105Z,19.10
2018-03-25T10:47:43.864Z,19.90
2018-03-25T10:48:44.771Z,19.80
2018-03-25T10:49:44.264Z,20.10
2018-03-25T10:50:45.285Z,20.10
2018-03-25T10:51:44.689Z,20.10
2018-03-25T10:52:45.031Z,19.70
2018-03-25T10:53:45.127Z,19.80
2018-03-25T10:54:45.353Z,20.50
2018-03-25T10:55:45.810Z,19.40
2018-03-25T10:56:45.671Z,19.40
2018-03-25T10:57:45.865Z,19.20
2018-03-25T10:58:46.063Z,20.50
2018-03-25T10:59:46.259Z,20.80
2018-03-25T11:00:46.519Z,19.80
2018-03-25T11:01:46.590Z,18.80
2018-03-25T11:02:46.841Z,19.60
2018-03-25T11:03:47.022Z,18.50
2018-03-25T11:04:47.273Z,18.50
2018-03-25T11:05:47.453Z,17.60
2018-03-25T11:06:47.732Z,17.40
2018-03-25T11:07:47.825Z,18.10
2018-03-25T11:08:48.130Z,17.50
2018-03-25T11:09:48.189Z,16.20
2018-03-25T11:10:48.438Z,14.00
2018-03-25T11:11:48.512Z,14.00
2018-03-25T11:12:48.759Z,14.60
2018-03-25T11:13:48.962Z,16.20
2018-03-25T11:14:49.192Z,16.10
2018-03-25T11:15:49.376Z,15.00
2018-03-25T11:16:49.613Z,17.80
2018-03-25T11:17:50.783Z,16.70
2018-03-25T11:18:50.138Z,15.80
2018-03-25T11:19:50.208Z,15.10
2018-03-25T11:20:50.461Z,14.30
2018-03-25T11:21:50.525Z,14.70
2018-03-25T11:22:50.710Z,15.40
2018-03-25T11:23:50.918Z,16.00
2018-03-25T11:24:51.191Z,15.60
2018-03-25T11:25:51.331Z,15.50
2018-03-25T11:26:51.533Z,16.10
2018-03-25T11:27:51.647Z,15.30
2018-03-25T11:28:51.837Z,15.30
2018-03-25T11:29:52.021Z,15.30
2018-03-25T11:30:52.273Z,15.50
2018-03-25T11:31:52.466Z,15.30
2018-03-25T11:32:52.706Z,14.60
2018-03-25T11:33:52.901Z,14.90
2018-03-25T11:34:53.123Z,15.50
2018-03-25T11:35:53.309Z,15.40
2018-03-25T11:36:53.574Z,15.00
2018-03-25T11:37:53.633Z,14.60
2018-03-25T11:38:53.877Z,14.30
2018-03-25T11:39:54.071Z,15.00
2018-03-25T11:40:54.289Z,14.80
2018-03-25T11:41:54.479Z,15.00
2018-03-25T11:42:54.826Z,15.20
2018-03-25T11:43:55.777Z,14.90
2018-03-25T11:44:55.790Z,15.70
2018-03-25T11:45:56.277Z,14.60
2018-03-25T11:46:55.562Z,14.60
2018-03-25T11:47:55.629Z,15.60
2018-03-25T11:48:57.781Z,15.30
2018-03-25T11:49:56.014Z,14.60
2018-03-25T11:50:56.221Z,14.80
2018-03-25T11:51:56.477Z,14.50
2018-03-25T11:52:56.657Z,14.80
2018-03-25T11:53:56.855Z,14.40
2018-03-25T11:54:57.160Z,14.50
2018-03-25T11:55:57.236Z,14.30
2018-03-25T11:58:29.128Z,15.30
2018-03-25T11:59:29.342Z,13.90
2018-03-25T12:00:30.067Z,14.80
2018-03-25T12:01:29.659Z,14.60
2018-03-25T12:02:29.883Z,14.00
2018-03-25T12:03:30.077Z,15.30
2018-03-25T12:04:30.323Z,13.80
2018-03-25T12:05:30.526Z,13.70
2018-03-25T12:06:30.831Z,13.70
2018-03-25T12:07:31.572Z,13.00
2018-03-25T12:08:32.103Z,13.60
2018-03-25T12:09:31.331Z,13.10
2018-03-25T12:10:31.582Z,13.20
2018-03-25T12:11:32.551Z,14.10
2018-03-25T12:12:32.006Z,12.90
2018-03-25T12:13:32.067Z,13.30
2018-03-25T12:14:32.372Z,14.10
2018-03-25T12:15:33.065Z,14.00
2018-03-25T12:16:32.771Z,13.40
2018-03-25T12:17:32.848Z,13.00
2018-03-25T12:18:33.077Z,13.00
2018-03-25T12:19:33.275Z,12.90
2018-03-25T12:20:33.494Z,13.50
2018-03-25T12:21:33.709Z,13.30
2018-03-25T12:22:34.026Z,13.80
2018-03-25T12:23:34.090Z,14.20
2018-03-25T12:24:34.354Z,13.40
2018-03-25T12:25:35.067Z,13.70
2018-03-25T12:26:35.584Z,14.20
2018-03-25T12:27:34.766Z,14.10
2018-03-25T12:28:34.988Z,14.40
2018-03-25T12:29:35.180Z,14.50
2018-03-25T12:30:35.493Z,14.90
2018-03-25T12:31:35.541Z,14.80
2018-03-25T12:32:35.840Z,14.20
2018-03-25T12:33:35.897Z,14.90
2018-03-25T12:34:36.164Z,14.20
2018-03-25T12:35:36.222Z,14.30
2018-03-25T12:36:36.487Z,14.70
2018-03-25T12:37:36.542Z,15.20
2018-03-25T12:38:36.805Z,15.00
2018-03-25T12:39:37.559Z,14.70
2018-03-25T12:40:37.126Z,15.30
2018-03-25T12:41:37.316Z,15.70
2018-03-25T12:42:37.549Z,15.00
2018-03-25T12:43:37.744Z,15.70
2018-03-25T12:44:38.157Z,15.20
2018-03-25T12:45:38.097Z,15.10
2018-03-25T12:46:38.369Z,16.10
2018-03-25T12:47:38.437Z,15.40
2018-03-25T12:48:38.792Z,16.10
2018-03-25T12:49:38.862Z,15.40
2018-03-25T12:50:39.226Z,16.40
2018-03-25T12:51:39.268Z,16.50
2018-03-25T12:52:39.661Z,16.10
2018-03-25T12:53:39.602Z,15.90
2018-03-25T12:54:39.862Z,15.30
2018-03-25T12:55:39.933Z,15.60
2018-03-25T12:56:41.054Z,16.10
2018-03-25T12:57:40.344Z,15.20
2018-03-25T12:58:40.715Z,15.90
2018-03-25T12:59:40.650Z,15.20
2018-03-25T13:00:40.932Z,15.60
2018-03-25T13:01:41.041Z,16.10
2018-03-25T13:02:41.358Z,16.00
2018-03-25T13:03:41.422Z,15.80
2018-03-25T13:04:41.774Z,15.60
2018-03-25T13:05:41.833Z,16.00
2018-03-25T13:06:42.201Z,15.50